Earnest Corner, ME

8:28 PM EDT on April 29, 2017 (GMT -0400)
KMEGARLA2 | | Change Station

Elev 410 ft 45.02 °N, 69.13 °W | Updated 1 second ago

Partly Cloudy
Partly Cloudy
63.3 °F
Feels Like 63.3 °F
N
11.0
Wind Variable Wind from NW
Gusts 22.0 mph

Today
High -- | Low -- °F
--% Chance of Precip.
Yesterday
High -- | Low -- °F
Precip. -- in
Pressure 29.81 in
Visibility 10.0 miles
Clouds Few 8000 ft
Mostly Cloudy 25000 ft
Dew Point 39 °F
Humidity 40%
Rainfall 0.00 in
Snow Depth Not available.
5:28 AM 7:40 PM
Waxing Crescent, 17% visible
METAR KBGR 292353Z 31014G24KT 10SM FEW080 BKN250 19/02 A2981 RMK AO2 PK WND 28027/2330 SLP093 T01890022 10250 20189 53033
Pressure 29.81 in
Visibility 10.0 miles
Clouds Few 8000 ft
Mostly Cloudy 25000 ft
Dew Point 39 °F
Humidity 40%
Rainfall 0.00 in
Snow Depth Not available.
5:28 AM 7:40 PM
Waxing Crescent, 17% visible
METAR KBGR 292353Z 31014G24KT 10SM FEW080 BKN250 19/02 A2981 RMK AO2 PK WND 28027/2330 SLP093 T01890022 10250 20189 53033

Get Severe Weather Alerts

Thanks for signing up!

Be on the lookout for a verification email in your inbox.

You'll start receiving the daily forecast at 8 AM.

×

10-Day Weather Forecast

Almanac

Astronomy

Apr. 29, 2017 Rise Set
Actual Time
Civil Twilight
Nautical Twilight
Astronomical Twilight
Moon
Length of Visible Light
Length of Day
Tomorrow will be .
, % of the Moon is Illuminated

Today's Extremes

State Highs State Lows

Community

WunderPhotos

WunderBlog® & News

Nearby

Air Quality

  Air Quality AQ Index Pollutant
Not available.

Snow Depth

Station Depth Elevation

Earthquake Activity

City Distance Mag. Time & Date
Minimum magnitude displayed is 2.5.

Coastal Water Temperatures

Place Temperature

Stations

Nearby Weather Stations

Station Location Temp. Windchill Dew Point Humidity Wind Precip. Elev Updated Type
                   

Watches & Warnings

There are currently no watches in effect.